createdAt,value
2022-10-04T00:01:45.453Z,17.90
2022-10-04T00:04:18.459Z,17.73
2022-10-04T00:06:54.883Z,18.30
2022-10-04T00:09:29.450Z,18.20
2022-10-04T00:11:56.986Z,18.50
2022-10-04T00:14:37.413Z,18.13
2022-10-04T00:17:12.359Z,17.88
2022-10-04T00:19:38.631Z,17.50
2022-10-04T00:22:08.269Z,17.58
2022-10-04T00:24:36.812Z,17.35
2022-10-04T00:27:29.753Z,17.10
2022-10-04T00:30:02.349Z,17.33
2022-10-04T00:32:31.831Z,18.30
2022-10-04T00:34:59.738Z,17.45
2022-10-04T00:37:27.550Z,17.25
2022-10-04T00:40:05.968Z,18.00
2022-10-04T00:42:50.493Z,17.40
2022-10-04T00:45:19.904Z,17.98
2022-10-04T00:47:46.181Z,17.90
2022-10-04T00:50:27.055Z,18.13
2022-10-04T00:52:57.532Z,18.33
2022-10-04T00:55:34.554Z,18.50
2022-10-04T00:58:04.942Z,18.30
2022-10-04T01:00:35.291Z,18.42
2022-10-04T01:03:13.276Z,19.70
2022-10-04T01:05:44.466Z,18.52
2022-10-04T01:08:14.774Z,19.00
2022-10-04T01:13:19.638Z,19.17
2022-10-04T01:16:11.951Z,19.08
2022-10-04T01:18:38.467Z,19.48
2022-10-04T01:21:09.061Z,19.63
2022-10-04T01:23:46.648Z,21.27
2022-10-04T01:26:34.497Z,20.60
2022-10-04T01:29:09.530Z,19.60
2022-10-04T01:31:43.007Z,19.40
2022-10-04T01:34:13.843Z,19.80
2022-10-04T01:36:40.795Z,19.77
2022-10-04T01:39:07.872Z,20.02
2022-10-04T01:41:44.621Z,20.25
2022-10-04T01:44:20.045Z,20.05
2022-10-04T01:46:47.973Z,19.55
2022-10-04T01:49:20.002Z,20.70
2022-10-04T01:52:03.507Z,20.55
2022-10-04T01:54:43.644Z,20.15
2022-10-04T01:57:17.693Z,20.65
2022-10-04T01:59:46.758Z,20.13
2022-10-04T02:02:24.781Z,21.23
2022-10-04T02:04:56.025Z,20.63
2022-10-04T02:07:23.344Z,19.50
2022-10-04T02:09:56.108Z,20.05
2022-10-04T02:12:22.777Z,20.65
2022-10-04T02:14:53.339Z,20.52
2022-10-04T02:17:28.236Z,20.38
2022-10-04T02:19:55.498Z,20.67
2022-10-04T02:22:25.552Z,19.45
2022-10-04T02:24:54.863Z,19.73
2022-10-04T02:27:26.832Z,18.87
2022-10-04T02:30:00.627Z,19.60
2022-10-04T02:32:48.876Z,19.58
2022-10-04T02:35:16.310Z,19.48
2022-10-04T02:37:43.547Z,19.45
2022-10-04T02:40:14.178Z,18.95
2022-10-04T02:43:00.336Z,19.20
2022-10-04T02:46:02.564Z,18.33
2022-10-04T02:48:37.529Z,18.50
2022-10-04T02:51:18.151Z,19.13
2022-10-04T02:54:03.395Z,18.88
2022-10-04T02:56:31.008Z,18.85
2022-10-04T02:59:02.242Z,18.25
2022-10-04T03:01:49.702Z,18.67
2022-10-04T03:04:21.018Z,17.90
2022-10-04T03:06:47.583Z,17.70
2022-10-04T03:09:15.239Z,17.38
2022-10-04T03:11:46.803Z,17.70
2022-10-04T03:14:25.468Z,18.08
2022-10-04T03:16:55.704Z,17.13
2022-10-04T03:21:53.017Z,17.45
2022-10-04T03:24:24.862Z,18.15
2022-10-04T03:26:56.997Z,17.48
2022-10-04T03:29:27.493Z,18.52
2022-10-04T03:31:58.908Z,17.98
2022-10-04T03:34:32.038Z,18.67
2022-10-04T03:37:00.880Z,18.70
2022-10-04T03:39:46.160Z,18.55
2022-10-04T03:42:15.845Z,17.95
2022-10-04T03:44:45.449Z,19.40
2022-10-04T03:47:15.686Z,17.50
2022-10-04T03:52:22.240Z,17.95
2022-10-04T03:54:52.301Z,17.63
2022-10-04T03:57:19.123Z,19.00
2022-10-04T03:59:45.775Z,17.67
2022-10-04T04:02:31.616Z,18.92
2022-10-04T04:05:20.264Z,17.30
2022-10-04T04:07:46.562Z,17.85
2022-10-04T04:10:19.049Z,18.13
2022-10-04T04:13:01.541Z,17.98
2022-10-04T04:15:30.530Z,18.88
2022-10-04T04:18:02.528Z,17.80
2022-10-04T04:20:34.070Z,17.65
2022-10-04T04:23:28.810Z,18.05
2022-10-04T04:25:59.847Z,17.98
2022-10-04T04:28:28.214Z,18.02
2022-10-04T04:31:06.344Z,18.33
2022-10-04T04:33:47.191Z,17.85
2022-10-04T04:36:15.830Z,17.63
2022-10-04T04:39:02.087Z,17.45
2022-10-04T04:41:33.786Z,17.70
2022-10-04T04:44:00.339Z,17.90
2022-10-04T04:46:28.974Z,18.05
2022-10-04T04:49:05.519Z,17.77
2022-10-04T04:51:33.242Z,18.85
2022-10-04T04:54:02.703Z,18.15
2022-10-04T04:56:30.575Z,18.73
2022-10-04T04:59:02.428Z,18.25
2022-10-04T05:01:31.589Z,18.17
2022-10-04T05:04:12.464Z,18.52
2022-10-04T05:06:44.230Z,17.55
2022-10-04T05:09:30.684Z,19.23
2022-10-04T05:12:07.714Z,18.92
2022-10-04T05:14:38.025Z,18.60
2022-10-04T05:19:39.562Z,18.33
2022-10-04T05:22:11.321Z,19.48
2022-10-04T05:24:44.920Z,18.95
2022-10-04T05:27:30.521Z,18.77
2022-10-04T05:30:30.621Z,20.70
2022-10-04T05:33:03.124Z,20.08
2022-10-04T05:35:38.463Z,20.23
2022-10-04T05:38:17.305Z,19.55
2022-10-04T05:41:08.067Z,20.98
2022-10-04T05:43:45.600Z,20.75
2022-10-04T05:46:23.502Z,20.98
2022-10-04T05:49:19.203Z,20.05
2022-10-04T05:51:54.748Z,20.10
2022-10-04T05:54:26.672Z,20.20
2022-10-04T05:57:05.185Z,19.63
2022-10-04T06:00:07.352Z,19.50
2022-10-04T06:03:04.866Z,20.50
2022-10-04T06:06:00.358Z,20.73
2022-10-04T06:08:31.326Z,20.52
2022-10-04T06:11:29.543Z,20.00
2022-10-04T06:14:23.455Z,21.63
2022-10-04T06:17:04.732Z,20.15
2022-10-04T06:19:41.157Z,20.55
2022-10-04T06:22:22.772Z,21.40
2022-10-04T06:25:00.257Z,20.85
2022-10-04T06:27:30.986Z,21.85
2022-10-04T06:30:11.785Z,21.45
2022-10-04T06:33:14.094Z,20.08
2022-10-04T06:36:11.508Z,22.60
2022-10-04T06:39:05.019Z,22.52
2022-10-04T06:41:43.325Z,21.92
2022-10-04T06:44:12.714Z,21.92
2022-10-04T06:46:56.799Z,21.90
2022-10-04T06:49:38.959Z,21.70
2022-10-04T06:52:27.295Z,23.20
2022-10-04T06:55:23.143Z,20.67
2022-10-04T06:58:08.594Z,22.45
2022-10-04T07:01:11.224Z,22.50
2022-10-04T07:03:51.182Z,22.27
2022-10-04T07:06:25.807Z,22.70
2022-10-04T07:08:59.528Z,23.13
2022-10-04T07:11:30.210Z,23.60
2022-10-04T07:14:02.866Z,23.15
2022-10-04T07:16:39.044Z,22.65
2022-10-04T07:19:24.145Z,20.52
2022-10-04T07:22:25.839Z,21.17
2022-10-04T07:25:30.658Z,22.23
2022-10-04T07:28:28.001Z,21.60
2022-10-04T07:31:03.950Z,21.33
2022-10-04T07:33:34.993Z,19.58
2022-10-04T07:36:12.466Z,20.08
2022-10-04T07:38:49.043Z,19.38
2022-10-04T07:41:37.243Z,19.80
2022-10-04T07:44:16.028Z,18.52
2022-10-04T07:46:42.329Z,18.60
2022-10-04T07:49:17.413Z,18.27
2022-10-04T07:52:05.402Z,18.35
2022-10-04T07:54:47.376Z,19.52
2022-10-04T07:57:27.542Z,17.90
2022-10-04T08:00:16.693Z,19.45
2022-10-04T08:02:57.428Z,19.15
2022-10-04T08:05:37.897Z,18.55
2022-10-04T08:08:32.263Z,17.55
2022-10-04T08:11:17.234Z,17.88
2022-10-04T08:14:26.987Z,17.65
2022-10-04T08:16:58.188Z,17.10
2022-10-04T08:19:35.945Z,18.10
2022-10-04T08:22:04.408Z,17.52
2022-10-04T08:25:21.773Z,17.73
2022-10-04T08:28:38.025Z,17.63
2022-10-04T08:31:26.884Z,17.80
2022-10-04T08:34:18.154Z,17.73
2022-10-04T08:37:03.142Z,17.45
2022-10-04T08:39:54.475Z,17.73
2022-10-04T08:42:48.680Z,17.80
2022-10-04T08:45:38.095Z,16.85
2022-10-04T08:48:22.703Z,17.93
2022-10-04T08:51:09.533Z,16.95
2022-10-04T08:53:52.481Z,18.70
2022-10-04T08:56:40.915Z,18.80
2022-10-04T08:59:13.371Z,19.77
2022-10-04T09:02:00.126Z,18.58
2022-10-04T09:04:41.853Z,20.05
2022-10-04T09:07:20.581Z,17.58
2022-10-04T09:10:14.936Z,17.20
2022-10-04T09:12:56.151Z,18.25
2022-10-04T09:15:44.795Z,16.95
2022-10-04T09:18:22.516Z,16.80
2022-10-04T09:20:58.954Z,18.25
2022-10-04T09:23:31.469Z,18.20
2022-10-04T09:26:20.054Z,17.50
2022-10-04T09:29:04.917Z,17.67
2022-10-04T09:31:59.459Z,17.33
2022-10-04T09:34:57.816Z,17.70
2022-10-04T09:38:02.779Z,17.23
2022-10-04T09:40:43.269Z,17.40
2022-10-04T09:43:50.222Z,16.98
2022-10-04T09:46:56.192Z,17.48
2022-10-04T09:49:32.583Z,17.02
2022-10-04T09:52:23.245Z,16.67
2022-10-04T09:55:24.589Z,16.83
2022-10-04T09:58:29.543Z,16.95
2022-10-04T10:01:02.176Z,15.93
2022-10-04T10:03:50.639Z,15.23
2022-10-04T10:06:35.758Z,16.63
2022-10-04T10:09:11.136Z,15.40
2022-10-04T10:12:08.460Z,15.50
2022-10-04T10:14:37.823Z,16.13
2022-10-04T10:17:17.609Z,15.60
2022-10-04T10:20:00.291Z,16.05
2022-10-04T10:22:42.480Z,15.85
2022-10-04T10:25:27.291Z,16.08
2022-10-04T10:28:15.360Z,15.30
2022-10-04T10:31:09.655Z,15.00
2022-10-04T10:34:04.915Z,14.23
2022-10-04T10:36:40.037Z,15.32
2022-10-04T10:39:27.367Z,15.00
2022-10-04T10:42:32.518Z,15.40
2022-10-04T10:45:21.120Z,14.75
2022-10-04T10:48:21.681Z,15.07
2022-10-04T10:51:00.634Z,14.10
2022-10-04T10:53:51.507Z,13.20
2022-10-04T10:56:36.657Z,15.07
2022-10-04T10:59:40.113Z,13.20
2022-10-04T11:02:48.288Z,12.48
2022-10-04T11:05:25.839Z,12.47
2022-10-04T11:08:29.860Z,13.20
2022-10-04T11:11:44.137Z,13.52
2022-10-04T11:14:35.055Z,12.95
2022-10-04T11:17:23.725Z,13.85
2022-10-04T11:20:15.503Z,13.40
2022-10-04T11:23:07.262Z,13.05
2022-10-04T11:25:52.370Z,13.02
2022-10-04T11:28:40.639Z,12.43
2022-10-04T11:31:29.119Z,12.55
2022-10-04T11:34:35.352Z,12.60
2022-10-04T11:37:08.154Z,11.98
2022-10-04T11:40:06.480Z,12.23
2022-10-04T11:42:45.007Z,11.85
2022-10-04T11:45:38.905Z,12.60
2022-10-04T11:48:08.014Z,11.40
2022-10-04T11:50:57.062Z,11.63
2022-10-04T11:53:48.006Z,11.90
2022-10-04T11:56:29.727Z,11.88
2022-10-04T11:59:11.405Z,11.80
2022-10-04T12:01:59.954Z,11.95
2022-10-04T12:04:47.502Z,11.18
2022-10-04T12:07:38.163Z,11.75
2022-10-04T12:10:13.453Z,11.40
2022-10-04T12:12:49.802Z,10.80
2022-10-04T12:15:34.831Z,11.43
2022-10-04T12:18:07.534Z,11.60
2022-10-04T12:21:18.633Z,11.45
2022-10-04T12:23:54.014Z,11.90
2022-10-04T12:26:49.438Z,12.35
2022-10-04T12:29:57.174Z,12.52
2022-10-04T12:32:38.397Z,11.48
2022-10-04T12:35:32.171Z,11.98
2022-10-04T12:38:16.709Z,11.15
2022-10-04T12:40:43.120Z,12.23
2022-10-04T12:43:09.962Z,11.68
2022-10-04T12:45:57.100Z,11.60
2022-10-04T12:48:37.056Z,12.15
2022-10-04T12:51:18.236Z,11.75
2022-10-04T12:53:56.709Z,11.43
2022-10-04T12:56:37.245Z,11.20
2022-10-04T12:59:15.347Z,10.88
2022-10-04T13:02:03.784Z,11.40
2022-10-04T13:04:47.190Z,12.07
2022-10-04T13:07:28.590Z,11.43
2022-10-04T13:10:32.833Z,11.00
2022-10-04T13:13:31.058Z,11.05
2022-10-04T13:19:21.288Z,11.18
2022-10-04T13:24:56.796Z,10.13
2022-10-04T13:27:28.849Z,10.63
2022-10-04T13:30:02.273Z,10.15
2022-10-04T13:32:39.654Z,11.10
2022-10-04T13:35:13.743Z,10.75
2022-10-04T13:38:04.739Z,10.23
2022-10-04T13:40:55.549Z,10.30
2022-10-04T13:43:33.922Z,10.80
2022-10-04T13:46:19.943Z,10.10
2022-10-04T13:49:13.709Z,10.85
2022-10-04T13:52:19.507Z,10.40
2022-10-04T13:55:35.534Z,10.50
2022-10-04T13:58:16.823Z,10.43
2022-10-04T14:01:17.160Z,10.38
2022-10-04T14:04:08.166Z,11.07
2022-10-04T14:06:43.655Z,11.15
2022-10-04T14:09:45.642Z,10.95
2022-10-04T14:12:44.836Z,10.90
2022-10-04T14:15:38.457Z,10.82
2022-10-04T14:18:35.592Z,10.60
2022-10-04T14:21:18.962Z,10.90
2022-10-04T14:24:27.026Z,11.00
2022-10-04T14:27:30.546Z,10.95
2022-10-04T14:30:18.503Z,10.20
2022-10-04T14:33:09.623Z,10.50
2022-10-04T14:35:54.337Z,10.65
2022-10-04T14:38:48.245Z,11.02
2022-10-04T14:41:33.640Z,10.70
2022-10-04T14:44:14.697Z,11.23
2022-10-04T14:46:49.965Z,10.60
2022-10-04T14:49:44.970Z,10.70
2022-10-04T14:52:38.174Z,11.63
2022-10-04T14:55:27.037Z,10.32
2022-10-04T14:58:24.243Z,11.02
2022-10-04T15:01:32.967Z,11.25
2022-10-04T15:04:27.257Z,10.88
2022-10-04T15:07:30.823Z,10.60
2022-10-04T15:10:19.370Z,11.13
2022-10-04T15:13:11.854Z,11.00
2022-10-04T15:16:15.725Z,10.77
2022-10-04T15:19:00.421Z,10.30
2022-10-04T15:21:33.696Z,10.82
2022-10-04T15:24:18.150Z,10.77
2022-10-04T15:27:18.507Z,10.05
2022-10-04T15:29:59.773Z,11.00
2022-10-04T15:32:44.492Z,10.48
2022-10-04T15:35:46.244Z,10.90
2022-10-04T15:38:35.578Z,10.60
2022-10-04T15:41:34.629Z,10.68
2022-10-04T15:44:15.139Z,11.05
2022-10-04T15:46:47.946Z,11.35
2022-10-04T15:49:27.854Z,11.40
2022-10-04T15:52:12.836Z,10.60
2022-10-04T15:54:51.938Z,10.90
2022-10-04T15:57:43.378Z,10.93
2022-10-04T16:00:10.042Z,11.00
2022-10-04T16:02:46.715Z,11.40
2022-10-04T16:05:50.839Z,10.55
2022-10-04T16:08:56.061Z,11.50
2022-10-04T16:11:48.114Z,12.52
2022-10-04T16:14:33.377Z,11.32
2022-10-04T16:17:02.839Z,11.10
2022-10-04T16:19:47.978Z,11.30
2022-10-04T16:22:19.436Z,10.90
2022-10-04T16:24:51.401Z,11.30
2022-10-04T16:27:56.121Z,10.27
2022-10-04T16:31:01.530Z,10.90
2022-10-04T16:33:44.690Z,10.30
2022-10-04T16:36:20.436Z,10.57
2022-10-04T16:39:10.815Z,10.80
2022-10-04T16:41:54.646Z,10.63
2022-10-04T16:44:47.878Z,9.77
2022-10-04T16:47:34.402Z,9.68
2022-10-04T16:50:04.753Z,10.13
2022-10-04T16:52:48.236Z,10.10
2022-10-04T16:55:44.007Z,10.30
2022-10-04T16:58:30.496Z,10.95
2022-10-04T17:01:28.738Z,11.00
2022-10-04T17:04:04.469Z,9.55
2022-10-04T17:06:53.090Z,10.40
2022-10-04T17:09:32.952Z,10.63
2022-10-04T17:12:20.226Z,11.02
2022-10-04T17:14:58.413Z,10.73
2022-10-04T17:17:53.474Z,10.77
2022-10-04T17:20:41.233Z,10.82
2022-10-04T17:23:42.129Z,10.95
2022-10-04T17:26:24.042Z,11.10
2022-10-04T17:29:06.333Z,11.95
2022-10-04T17:31:51.498Z,11.85
2022-10-04T17:34:36.149Z,11.60
2022-10-04T17:37:13.194Z,11.43
2022-10-04T17:39:44.691Z,11.40
2022-10-04T17:42:31.051Z,11.25
2022-10-04T17:45:20.586Z,11.38
2022-10-04T17:48:49.391Z,11.85
2022-10-04T17:52:02.432Z,11.75
2022-10-04T17:55:10.257Z,11.68
2022-10-04T17:57:51.039Z,11.70
2022-10-04T18:00:47.614Z,12.48
2022-10-04T18:03:40.523Z,12.02
2022-10-04T18:06:38.246Z,12.50
2022-10-04T18:09:27.530Z,11.65
2022-10-04T18:12:04.929Z,14.25
2022-10-04T18:14:37.960Z,13.05
2022-10-04T18:17:07.957Z,12.95
2022-10-04T18:19:56.602Z,13.75
2022-10-04T18:22:26.818Z,14.57
2022-10-04T18:28:15.120Z,12.95
2022-10-04T18:30:54.143Z,13.75
2022-10-04T18:33:29.784Z,15.35
2022-10-04T18:36:19.204Z,14.60
2022-10-04T18:39:01.577Z,14.87
2022-10-04T18:41:49.197Z,15.88
2022-10-04T18:44:17.695Z,14.88
2022-10-04T18:46:48.113Z,14.93
2022-10-04T18:49:26.959Z,14.63
2022-10-04T18:52:02.933Z,16.15
2022-10-04T18:54:58.479Z,14.57
2022-10-04T18:58:02.262Z,14.32
2022-10-04T19:01:07.253Z,15.30
2022-10-04T19:03:47.174Z,15.00
2022-10-04T19:06:26.444Z,14.85
2022-10-04T19:09:06.526Z,13.88
2022-10-04T19:11:47.794Z,15.10
2022-10-04T19:14:43.693Z,14.02
2022-10-04T19:17:34.794Z,14.45
2022-10-04T19:20:21.764Z,15.00
2022-10-04T19:23:19.710Z,15.23
2022-10-04T19:26:17.589Z,14.43
2022-10-04T19:28:38.176Z,13.15
2022-10-04T19:31:31.773Z,14.40
2022-10-04T19:34:14.395Z,13.98
2022-10-04T19:36:55.843Z,13.32
2022-10-04T19:39:29.991Z,14.30
2022-10-04T19:42:15.151Z,14.52
2022-10-04T19:45:02.995Z,13.98
2022-10-04T19:47:50.119Z,13.70
2022-10-04T19:50:53.582Z,14.60
2022-10-04T19:53:35.160Z,14.05
2022-10-04T19:56:06.889Z,14.07
2022-10-04T19:58:44.312Z,13.60
2022-10-04T20:01:12.435Z,14.20
2022-10-04T20:03:39.714Z,14.18
2022-10-04T20:06:07.413Z,14.82
2022-10-04T20:08:53.439Z,14.00
2022-10-04T20:11:27.115Z,13.93
2022-10-04T20:14:16.805Z,14.15
2022-10-04T20:16:46.378Z,14.18
2022-10-04T20:19:21.466Z,14.52
2022-10-04T20:21:48.414Z,15.05
2022-10-04T20:24:41.612Z,14.82
2022-10-04T20:27:30.248Z,14.68
2022-10-04T20:29:58.898Z,15.02
2022-10-04T20:32:34.525Z,14.15
2022-10-04T20:35:04.176Z,14.52
2022-10-04T20:38:19.998Z,14.82
2022-10-04T20:40:45.282Z,13.85
2022-10-04T20:43:14.829Z,14.10
2022-10-04T20:45:54.829Z,14.43
2022-10-04T20:48:24.054Z,14.27
2022-10-04T20:50:52.197Z,13.45
2022-10-04T20:53:24.876Z,14.23
2022-10-04T20:56:07.969Z,15.30
2022-10-04T20:58:37.881Z,14.52
2022-10-04T21:01:39.219Z,14.30
2022-10-04T21:04:31.832Z,14.50
2022-10-04T21:07:01.185Z,13.90
2022-10-04T21:09:29.086Z,14.53
2022-10-04T21:11:57.001Z,14.48
2022-10-04T21:14:31.261Z,14.77
2022-10-04T21:17:03.408Z,13.65
2022-10-04T21:19:30.005Z,14.10
2022-10-04T21:21:57.196Z,14.82
2022-10-04T21:24:43.074Z,14.23
2022-10-04T21:27:35.500Z,14.50
2022-10-04T21:30:12.528Z,14.88
2022-10-04T21:32:38.974Z,14.43
2022-10-04T21:35:06.561Z,14.20
2022-10-04T21:37:33.303Z,15.23
2022-10-04T21:39:59.675Z,14.25
2022-10-04T21:42:26.235Z,15.43
2022-10-04T21:44:53.097Z,14.38
2022-10-04T21:47:22.905Z,14.43
2022-10-04T21:49:53.794Z,14.30
2022-10-04T21:52:20.240Z,14.90
2022-10-04T21:54:46.651Z,14.55
2022-10-04T21:57:13.570Z,14.98
2022-10-04T21:59:39.973Z,14.18
2022-10-04T22:02:07.776Z,14.93
2022-10-04T22:04:34.383Z,15.15
2022-10-04T22:07:00.898Z,14.77
2022-10-04T22:09:27.267Z,14.50
2022-10-04T22:11:53.610Z,15.13
2022-10-04T22:14:19.987Z,15.50
2022-10-04T22:16:46.604Z,15.57
2022-10-04T22:19:13.222Z,14.75
2022-10-04T22:21:39.662Z,14.35
2022-10-04T22:24:16.291Z,14.48
2022-10-04T22:26:42.769Z,14.65
2022-10-04T22:29:13.513Z,15.43
2022-10-04T22:31:43.932Z,16.40
2022-10-04T22:34:19.372Z,15.10
2022-10-04T22:36:47.371Z,15.50
2022-10-04T22:39:18.497Z,14.88
2022-10-04T22:41:56.217Z,14.80
2022-10-04T22:44:23.892Z,15.48
2022-10-04T22:46:59.761Z,15.32
2022-10-04T22:49:30.325Z,15.73
2022-10-04T22:51:59.021Z,15.48
2022-10-04T22:54:31.111Z,15.93
2022-10-04T22:56:58.248Z,15.45
2022-10-04T22:59:34.404Z,14.50
2022-10-04T23:02:07.622Z,16.83
2022-10-04T23:04:34.106Z,15.68
2022-10-04T23:07:00.648Z,15.43
2022-10-04T23:09:27.011Z,15.65
2022-10-04T23:11:53.420Z,15.57
2022-10-04T23:14:19.819Z,15.73
2022-10-04T23:16:46.365Z,16.10
2022-10-04T23:19:18.678Z,15.07
2022-10-04T23:21:47.302Z,17.00
2022-10-04T23:24:21.850Z,15.82
2022-10-04T23:26:56.307Z,15.40
2022-10-04T23:29:33.433Z,16.05
2022-10-04T23:32:08.837Z,14.88
2022-10-04T23:34:41.299Z,14.80
2022-10-04T23:37:16.344Z,15.70
2022-10-04T23:39:43.402Z,15.77
2022-10-04T23:42:18.615Z,15.60
2022-10-04T23:44:48.028Z,15.55
2022-10-04T23:47:17.678Z,15.30
2022-10-04T23:49:45.112Z,15.77
2022-10-04T23:52:24.995Z,15.63
2022-10-04T23:54:53.872Z,15.18
2022-10-04T23:57:24.707Z,15.90
2022-10-04T23:59:51.246Z,16.35
